Time;durP1;ratioP1;P1;durP2;ratioP2;P2;SDS_P1;SDS_P2;PMS_P1;PMS_P2;Temp;Humidity;BMP_temperature;BMP_pressure;BME280_temperature;BME280_humidity;BME280_pressure;Samples;Min_cycle;Max_cycle;Signal;HPM_P1;HPM_P2
2022/08/08 00:00:12;;;;;;;8.38;4.40;;;17.00;99.90;;;;;;4995362;28;20033;-80
2022/08/08 00:02:58;;;;;;;5.63;3.92;;;17.00;99.90;;;;;;5006029;28;20576;-80
2022/08/08 00:05:33;;;;;;;7.85;4.32;;;17.00;99.90;;;;;;4987436;28;20076;-80
2022/08/08 00:08:08;;;;;;;5.95;3.97;;;16.90;99.90;;;;;;4977915;28;20045;-80
2022/08/08 00:10:54;;;;;;;6.75;4.75;;;16.90;99.90;;;;;;5005576;28;20021;-80
2022/08/08 00:13:52;;;;;;;7.28;4.32;;;16.80;99.90;;;;;;4996618;28;20034;-81
2022/08/08 00:16:47;;;;;;;6.20;4.75;;;16.80;99.90;;;;;;4976551;28;20034;-81
2022/08/08 00:19:17;;;;;;;6.15;4.30;;;16.80;99.90;;;;;;4994072;28;20037;-78
2022/08/08 00:21:55;;;;;;;7.93;4.47;;;16.80;99.90;;;;;;5019060;28;20114;-82
2022/08/08 00:24:27;;;;;;;6.72;4.35;;;16.80;99.90;;;;;;5017908;28;20041;-81
2022/08/08 00:26:57;;;;;;;8.30;5.10;;;16.80;99.90;;;;;;5023306;28;20273;-81
2022/08/08 00:29:30;;;;;;;8.05;5.38;;;16.70;99.90;;;;;;5058131;28;20029;-81
2022/08/08 00:32:03;;;;;;;8.50;5.18;;;16.70;99.90;;;;;;5054290;28;20093;-81
2022/08/08 00:35:19;;;;;;;7.18;4.97;;;16.70;99.90;;;;;;5054909;28;20057;-82
2022/08/08 00:38:06;;;;;;;9.57;4.35;;;16.70;99.90;;;;;;5036180;28;20594;-82
2022/08/08 00:40:41;;;;;;;6.72;4.38;;;16.60;99.90;;;;;;5030743;28;20021;-81
2022/08/08 00:43:38;;;;;;;6.75;4.30;;;16.60;99.90;;;;;;5030219;28;20025;-82
2022/08/08 00:46:33;;;;;;;6.85;4.68;;;16.60;99.90;;;;;;5045374;28;20056;-81
2022/08/08 00:49:26;;;;;;;7.85;4.70;;;16.60;99.90;;;;;;5043146;28;20040;-81
2022/08/08 00:52:09;;;;;;;6.95;4.20;;;16.60;99.90;;;;;;5051539;28;20021;-81
2022/08/08 00:54:38;;;;;;;6.57;4.13;;;16.60;99.90;;;;;;5060874;28;20398;-83
2022/08/08 00:57:39;;;;;;;6.60;4.32;;;16.50;99.90;;;;;;5050892;28;20029;-82
2022/08/08 01:00:10;;;;;;;5.78;4.55;;;16.50;99.90;;;;;;5029905;28;20519;-81
2022/08/08 01:03:14;;;;;;;6.25;3.95;;;16.50;99.90;;;;;;5044689;28;20397;-82
2022/08/08 01:06:17;;;;;;;7.68;4.57;;;16.40;99.90;;;;;;5043446;28;20040;-80
2022/08/08 01:09:03;;;;;;;5.53;4.35;;;16.50;99.90;;;;;;5026629;28;20104;-82
2022/08/08 01:11:51;;;;;;;7.00;4.35;;;16.40;99.90;;;;;;5043992;28;20020;-82
2022/08/08 01:14:55;;;;;;;9.95;4.93;;;16.40;99.90;;;;;;5047105;28;20083;-80
2022/08/08 01:17:50;;;;;;;5.65;4.20;;;16.40;99.90;;;;;;5037263;28;20021;-81
2022/08/08 01:20:37;;;;;;;6.05;4.43;;;16.30;99.90;;;;;;5000869;28;20033;-81
2022/08/08 01:23:30;;;;;;;7.88;4.45;;;16.30;99.90;;;;;;5045450;28;20033;-81
2022/08/08 01:26:14;;;;;;;7.85;4.35;;;16.30;99.90;;;;;;5042244;28;20040;-81
2022/08/08 01:29:09;;;;;;;9.40;4.45;;;16.30;99.90;;;;;;5041684;28;20538;-83
2022/08/08 01:31:54;;;;;;;7.85;4.13;;;16.20;99.90;;;;;;5024765;28;20140;-81
2022/08/08 01:34:50;;;;;;;7.15;3.97;;;16.20;99.90;;;;;;5041628;28;20052;-81
2022/08/08 01:37:35;;;;;;;6.07;4.10;;;16.20;99.90;;;;;;5043378;28;20039;-81
2022/08/08 01:40:20;;;;;;;7.13;4.47;;;16.20;99.90;;;;;;5042187;28;20111;-83
2022/08/08 01:43:01;;;;;;;5.63;4.13;;;16.20;99.90;;;;;;5043474;28;20116;-81
2022/08/08 01:46:04;;;;;;;5.38;3.97;;;16.20;99.90;;;;;;5026435;28;20025;-81
2022/08/08 01:48:59;;;;;;;7.72;4.40;;;16.20;99.90;;;;;;5042463;28;20025;-80
2022/08/08 01:51:55;;;;;;;10.40;4.80;;;16.20;99.90;;;;;;5023578;28;20017;-82
2022/08/08 01:54:55;;;;;;;7.82;4.28;;;16.20;99.90;;;;;;5042439;28;20037;-81
2022/08/08 01:57:38;;;;;;;6.68;4.68;;;16.20;99.90;;;;;;5042605;28;20530;-80
2022/08/08 02:00:07;;;;;;;8.07;5.13;;;16.20;99.90;;;;;;5025135;28;20059;-78
2022/08/08 02:02:57;;;;;;;7.45;5.05;;;16.10;99.90;;;;;;5042915;28;20017;-81
2022/08/08 02:06:08;;;;;;;7.10;4.60;;;16.10;99.90;;;;;;5042893;28;20028;-81
2022/08/08 02:08:34;;;;;;;6.38;4.53;;;16.10;99.90;;;;;;5039473;28;20041;-82
2022/08/08 02:11:33;;;;;;;7.53;4.88;;;16.10;99.90;;;;;;5027761;28;20868;-82
2022/08/08 02:14:04;;;;;;;7.57;5.00;;;16.10;99.90;;;;;;5026206;28;20029;-80
2022/08/08 02:16:47;;;;;;;8.30;4.50;;;16.00;99.90;;;;;;5040707;28;20043;-80
2022/08/08 02:19:25;;;;;;;7.05;4.57;;;16.00;99.90;;;;;;5042183;28;20455;-81
2022/08/08 02:22:32;;;;;;;6.75;4.60;;;16.00;99.90;;;;;;5024788;28;20144;-82
2022/08/08 02:25:43;;;;;;;7.07;4.72;;;16.00;99.90;;;;;;5041487;28;20064;-80
2022/08/08 02:28:35;;;;;;;8.20;4.95;;;16.00;99.90;;;;;;5012623;28;20049;-80
2022/08/08 02:31:31;;;;;;;6.82;4.95;;;15.90;99.90;;;;;;5039721;28;20041;-80
2022/08/08 02:34:17;;;;;;;7.97;5.45;;;15.90;99.90;;;;;;5041349;28;20083;-79
2022/08/08 02:37:22;;;;;;;6.82;4.60;;;15.90;99.90;;;;;;5038682;28;20064;-79
2022/08/08 02:40:09;;;;;;;8.27;4.63;;;15.80;99.90;;;;;;5036940;28;20033;-81
2022/08/08 02:43:13;;;;;;;9.70;4.63;;;15.80;99.90;;;;;;5048388;28;20064;-80
2022/08/08 02:46:12;;;;;;;8.57;4.45;;;15.80;99.90;;;;;;5042792;28;20455;-80
2022/08/08 02:48:49;;;;;;;7.00;4.68;;;15.70;99.90;;;;;;5045170;28;20431;-77
2022/08/08 02:51:50;;;;;;;8.50;5.20;;;15.70;99.90;;;;;;5029154;28;20036;-79
2022/08/08 02:54:34;;;;;;;6.67;4.10;;;15.70;99.90;;;;;;5045161;28;20033;-81
2022/08/08 02:57:31;;;;;;;7.43;5.13;;;15.70;99.90;;;;;;5052626;28;20033;-79
2022/08/08 02:59:59;;;;;;;4.97;4.15;;;15.70;99.90;;;;;;5047054;28;20025;-79
2022/08/08 03:02:47;;;;;;;7.82;4.57;;;15.70;99.90;;;;;;5042534;28;20096;-80
2022/08/08 03:05:31;;;;;;;6.70;4.28;;;15.70;99.90;;;;;;5044893;28;20025;-77
2022/08/08 03:08:18;;;;;;;7.00;4.80;;;15.70;99.90;;;;;;5043671;28;20115;-80
2022/08/08 03:11:03;;;;;;;8.30;4.88;;;15.60;99.90;;;;;;5026920;28;20412;-79
2022/08/08 03:13:49;;;;;;;6.97;4.72;;;15.60;99.90;;;;;;5044961;28;20090;-80
2022/08/08 03:16:22;;;;;;;6.07;4.43;;;15.60;99.90;;;;;;5048131;28;20033;-83
2022/08/08 03:18:58;;;;;;;6.93;4.97;;;15.60;99.90;;;;;;5016626;28;20835;-82
2022/08/08 03:21:23;;;;;;;7.75;4.90;;;15.60;99.90;;;;;;5063605;28;20429;-82
2022/08/08 03:23:49;;;;;;;6.40;4.93;;;15.60;99.90;;;;;;5048724;28;20078;-80
2022/08/08 03:26:25;;;;;;;8.00;4.80;;;15.60;99.90;;;;;;5069403;22;20112;-74
2022/08/08 03:28:58;;;;;;;5.47;4.95;;;15.70;99.90;;;;;;5102709;27;20023;-74
2022/08/08 03:34:12;;;;;;;7.80;5.10;;;15.70;99.90;;;;;;5101173;27;20035;-74
2022/08/08 03:36:42;;;;;;;7.72;5.25;;;15.80;99.90;;;;;;5058451;28;21841;-74
2022/08/08 03:39:12;;;;;;;6.90;5.03;;;15.80;99.90;;;;;;5048910;28;20032;-76
2022/08/08 03:41:38;;;;;;;7.43;4.70;;;15.80;99.90;;;;;;5081688;28;20035;-74
2022/08/08 03:44:04;;;;;;;7.20;4.50;;;15.80;99.90;;;;;;5066813;28;20044;-74
2022/08/08 03:46:29;;;;;;;10.05;5.53;;;15.90;99.90;;;;;;5048306;28;20035;-76
2022/08/08 03:49:03;;;;;;;9.10;4.90;;;15.90;99.90;;;;;;5067215;28;20484;-75
2022/08/08 03:51:29;;;;;;;8.00;4.47;;;15.90;99.90;;;;;;5081905;28;20395;-75
2022/08/08 03:53:55;;;;;;;5.55;4.38;;;15.90;99.90;;;;;;5084009;28;20036;-75
2022/08/08 03:56:22;;;;;;;7.82;4.80;;;15.90;99.90;;;;;;5080123;28;20051;-74
2022/08/08 03:58:52;;;;;;;9.02;5.60;;;15.90;99.90;;;;;;5083393;28;20024;-74
2022/08/08 04:01:18;;;;;;;13.68;5.80;;;15.90;99.90;;;;;;5054819;28;20057;-74
2022/08/08 04:03:46;;;;;;;7.20;5.00;;;15.90;99.90;;;;;;5064105;28;20260;-75
2022/08/08 04:06:12;;;;;;;7.18;5.18;;;15.90;99.90;;;;;;5080586;28;20509;-75
2022/08/08 04:08:39;;;;;;;8.25;4.70;;;15.90;99.90;;;;;;5085675;28;20384;-75
2022/08/08 04:11:05;;;;;;;7.68;4.90;;;15.90;99.90;;;;;;5050988;28;20032;-76
2022/08/08 04:13:31;;;;;;;10.63;5.55;;;15.90;99.90;;;;;;5086867;28;20490;-75
2022/08/08 04:15:57;;;;;;;7.28;5.05;;;15.90;99.90;;;;;;5066241;28;20028;-76
2022/08/08 04:18:23;;;;;;;7.70;4.80;;;15.90;99.90;;;;;;5082684;28;20039;-75
2022/08/08 04:20:49;;;;;;;9.88;5.13;;;15.90;99.90;;;;;;5062834;28;20090;-75
2022/08/08 04:23:14;;;;;;;6.63;4.85;;;15.90;99.90;;;;;;5064235;28;20059;-75
2022/08/08 04:25:40;;;;;;;7.40;4.57;;;15.90;99.90;;;;;;5082377;28;20023;-75
2022/08/08 04:28:07;;;;;;;6.22;5.18;;;15.90;99.90;;;;;;5064043;28;20020;-74
2022/08/08 04:30:33;;;;;;;10.38;5.70;;;15.90;99.90;;;;;;5049882;28;20027;-74
2022/08/08 04:32:59;;;;;;;9.05;5.07;;;15.90;99.90;;;;;;5080985;28;20023;-76
2022/08/08 04:35:25;;;;;;;7.93;5.35;;;15.90;99.90;;;;;;5080242;28;20024;-76
2022/08/08 04:37:52;;;;;;;8.82;5.75;;;15.90;99.90;;;;;;5062500;28;20025;-76
2022/08/08 04:40:18;;;;;;;9.77;5.13;;;16.00;99.90;;;;;;5063005;28;20027;-75
2022/08/08 04:42:45;;;;;;;9.27;4.72;;;16.00;99.90;;;;;;5065167;28;20031;-75
2022/08/08 04:45:11;;;;;;;9.52;5.00;;;16.00;99.90;;;;;;5065315;28;20025;-74
2022/08/08 04:47:37;;;;;;;7.75;5.25;;;16.00;99.90;;;;;;5080477;28;20415;-74
2022/08/08 04:50:04;;;;;;;8.40;5.18;;;16.00;99.90;;;;;;5063753;28;20029;-75
2022/08/08 04:52:29;;;;;;;8.45;5.45;;;16.10;99.90;;;;;;5062593;28;20020;-75
2022/08/08 04:54:55;;;;;;;7.88;5.28;;;16.10;99.90;;;;;;5065324;28;20032;-75
2022/08/08 04:57:21;;;;;;;9.13;5.22;;;16.10;99.90;;;;;;5079846;28;20012;-74
2022/08/08 04:59:47;;;;;;;5.93;3.67;;;16.20;99.90;;;;;;5065009;28;20046;-75
2022/08/08 05:02:13;;;;;;;6.40;4.53;;;16.80;99.90;;;;;;5063303;28;20086;-75
2022/08/08 05:04:38;;;;;;;10.65;5.28;;;17.30;99.90;;;;;;5065791;28;20032;-76
2022/08/08 05:07:04;;;;;;;8.52;4.80;;;17.00;99.90;;;;;;5079030;28;20028;-75
2022/08/08 05:09:30;;;;;;;7.72;4.90;;;16.80;99.90;;;;;;5081474;28;20111;-74
2022/08/08 05:11:55;;;;;;;9.05;5.40;;;16.70;99.90;;;;;;5048111;28;20028;-74
2022/08/08 05:14:21;;;;;;;7.68;4.70;;;16.60;99.90;;;;;;5080144;28;20135;-74
2022/08/08 05:16:47;;;;;;;6.00;4.60;;;16.60;99.90;;;;;;5062417;28;20407;-74
2022/08/08 05:19:13;;;;;;;6.78;3.55;;;16.50;99.90;;;;;;5079432;28;20032;-75
2022/08/08 05:21:42;;;;;;;9.35;4.70;;;16.90;99.90;;;;;;5080833;28;20024;-75
2022/08/08 05:24:09;;;;;;;6.45;4.57;;;17.30;99.90;;;;;;5063381;28;20032;-75
2022/08/08 05:26:36;;;;;;;5.60;4.18;;;17.10;99.90;;;;;;5063972;28;20029;-73
2022/08/08 05:29:06;;;;;;;4.82;3.83;;;17.00;99.90;;;;;;5083901;28;20146;-74
2022/08/08 05:31:31;;;;;;;8.00;4.28;;;16.80;99.90;;;;;;5062537;28;20020;-74
2022/08/08 05:33:58;;;;;;;8.50;4.32;;;16.70;99.90;;;;;;5078216;28;20032;-75
2022/08/08 05:36:25;;;;;;;5.32;3.72;;;16.70;99.90;;;;;;5077578;28;20106;-74
2022/08/08 05:38:52;;;;;;;5.25;3.63;;;16.60;99.90;;;;;;5063310;28;20123;-73
2022/08/08 05:41:23;;;;;;;6.30;3.65;;;16.60;99.90;;;;;;5080372;28;20036;-74
2022/08/08 05:43:51;;;;;;;;;;;16.50;99.90;;;;;;5082013;28;20027;-74
2022/08/08 05:46:21;;;;;;;7.47;4.20;;;16.50;99.90;;;;;;5046915;28;19940;-77
2022/08/08 05:48:47;;;;;;;6.53;3.30;;;16.40;99.90;;;;;;5061095;28;20063;-72
2022/08/08 05:51:13;;;;;;;5.03;3.65;;;16.40;99.90;;;;;;5077491;28;20028;-73
2022/08/08 05:53:39;;;;;;;4.97;3.47;;;16.40;99.90;;;;;;5061946;28;20024;-74
2022/08/08 05:56:08;;;;;;;4.68;3.38;;;16.50;99.90;;;;;;5062749;28;20036;-74
2022/08/08 05:58:33;;;;;;;6.85;3.70;;;16.50;99.90;;;;;;5044320;28;20098;-74
2022/08/08 06:01:01;;;;;;;6.30;4.00;;;16.50;99.90;;;;;;5075370;28;20648;-75
2022/08/08 06:03:28;;;;;;;6.20;3.92;;;16.50;99.90;;;;;;5059117;28;20025;-75
2022/08/08 06:05:59;;;;;;;7.18;3.95;;;16.60;99.90;;;;;;5077463;28;20527;-75
2022/08/08 06:08:33;;;;;;;5.63;3.70;;;16.60;99.90;;;;;;5063494;28;20057;-76
2022/08/08 06:10:59;;;;;;;6.38;4.28;;;16.70;99.90;;;;;;5062568;28;20039;-76
2022/08/08 06:13:30;;;;;;;6.07;3.88;;;16.80;99.90;;;;;;5074383;28;20035;-75
2022/08/08 06:15:56;;;;;;;4.88;3.50;;;16.80;99.90;;;;;;5074899;28;20547;-75
2022/08/08 06:18:23;;;;;;;4.90;3.53;;;16.90;99.90;;;;;;5060074;28;20016;-75
2022/08/08 06:20:54;;;;;;;7.18;3.60;;;16.90;99.90;;;;;;5074306;28;20154;-76
2022/08/08 06:23:21;;;;;;;7.25;4.22;;;17.00;99.90;;;;;;5074720;28;20050;-75
2022/08/08 06:26:00;;;;;;;6.20;4.30;;;17.10;99.90;;;;;;5080760;28;20059;-75
2022/08/08 06:28:33;;;;;;;10.68;3.88;;;17.10;99.90;;;;;;5057878;28;20151;-74
2022/08/08 06:31:02;;;;;;;8.30;3.70;;;17.20;99.90;;;;;;5060681;28;20029;-75
2022/08/08 06:33:37;;;;;;;5.25;3.75;;;17.30;99.90;;;;;;5060497;28;20036;-76
2022/08/08 06:36:04;;;;;;;5.15;3.85;;;17.30;99.90;;;;;;5077645;28;20097;-75
2022/08/08 06:38:34;;;;;;;10.15;3.95;;;17.30;99.90;;;;;;5057454;28;20036;-75
2022/08/08 06:41:06;;;;;;;7.70;3.90;;;17.30;99.90;;;;;;5061899;28;20031;-74
2022/08/08 06:43:36;;;;;;;6.97;3.08;;;17.40;99.90;;;;;;5078576;28;20016;-75
2022/08/08 06:46:04;;;;;;;4.82;2.78;;;17.40;99.90;;;;;;5074937;28;20038;-76
2022/08/08 06:48:31;;;;;;;6.72;3.60;;;17.60;99.90;;;;;;5077330;28;20036;-76
2022/08/08 06:50:57;;;;;;;7.65;3.53;;;17.70;99.90;;;;;;5079691;28;20020;-76
2022/08/08 06:53:24;;;;;;;10.18;4.43;;;17.80;99.90;;;;;;5078838;28;20063;-76
2022/08/08 06:55:50;;;;;;;4.88;3.60;;;17.90;99.90;;;;;;5058259;28;20082;-74
2022/08/08 06:58:16;;;;;;;10.77;5.10;;;17.90;99.90;;;;;;5057017;28;20024;-75
2022/08/08 07:00:47;;;;;;;5.80;3.75;;;17.90;99.90;;;;;;5076894;28;20051;-74
2022/08/08 07:03:38;;;;;;;7.03;3.67;;;18.00;99.90;;;;;;5054980;28;20020;-76
2022/08/08 07:06:08;;;;;;;6.85;3.08;;;18.10;99.90;;;;;;5024072;28;20105;-75
2022/08/08 07:08:38;;;;;;;7.28;4.30;;;18.20;99.90;;;;;;5057224;28;20644;-76
2022/08/08 07:11:05;;;;;;;7.70;3.80;;;18.30;99.90;;;;;;5085002;28;20029;-75
2022/08/08 07:13:41;;;;;;;6.85;3.88;;;18.40;99.90;;;;;;5052074;28;20523;-75
2022/08/08 07:16:12;;;;;;;6.25;3.58;;;18.40;99.90;;;;;;5066757;28;20042;-76
2022/08/08 07:18:38;;;;;;;7.82;3.65;;;18.50;99.90;;;;;;5084953;28;20566;-76
2022/08/08 07:21:06;;;;;;;8.68;4.63;;;18.50;99.90;;;;;;5063322;28;20103;-74
2022/08/08 07:23:51;;;;;;;6.32;3.67;;;18.50;99.90;;;;;;5081995;28;20028;-76
2022/08/08 07:26:21;;;;;;;8.02;4.45;;;18.40;99.90;;;;;;5070178;28;20112;-75
2022/08/08 07:28:48;;;;;;;7.38;4.07;;;18.50;99.90;;;;;;5066247;28;20052;-75
2022/08/08 07:31:15;;;;;;;9.63;4.28;;;18.50;99.90;;;;;;5065880;28;20090;-75
2022/08/08 07:33:41;;;;;;;5.65;3.97;;;18.50;99.90;;;;;;5084912;28;20047;-74
2022/08/08 07:36:09;;;;;;;6.82;3.88;;;18.50;99.90;;;;;;5070726;28;20040;-75
2022/08/08 07:38:36;;;;;;;5.68;3.95;;;18.60;99.90;;;;;;5090001;28;20020;-75
2022/08/08 07:41:03;;;;;;;6.95;3.33;;;18.70;99.90;;;;;;5068400;28;20110;-75
2022/08/08 07:43:32;;;;;;;6.57;3.65;;;18.70;99.90;;;;;;5069958;28;20104;-75
2022/08/08 07:45:58;;;;;;;4.15;3.35;;;18.60;99.90;;;;;;5070781;28;20024;-75
2022/08/08 07:48:23;;;;;;;10.20;4.30;;;18.60;99.90;;;;;;5068969;28;20028;-75
2022/08/08 07:50:53;;;;;;;6.80;3.10;;;18.60;99.90;;;;;;5055047;28;20372;-75
2022/08/08 07:53:33;;;;;;;5.18;3.83;;;18.70;99.90;;;;;;5068280;28;20156;-76
2022/08/08 07:56:01;;;;;;;4.32;3.13;;;18.80;99.90;;;;;;5087259;28;20081;-75
2022/08/08 07:58:42;;;;;;;6.55;2.97;;;18.80;99.90;;;;;;5085112;28;20024;-75
2022/08/08 08:01:14;;;;;;;4.82;3.28;;;18.90;99.90;;;;;;5067195;28;20103;-76
2022/08/08 08:04:03;;;;;;;4.03;3.10;;;19.00;99.90;;;;;;5067778;28;20476;-75
2022/08/08 08:06:32;;;;;;;5.40;3.00;;;19.10;99.90;;;;;;5083654;28;20024;-74
2022/08/08 08:09:09;;;;;;;5.50;3.30;;;19.20;99.90;;;;;;5066593;28;20447;-75
2022/08/08 08:11:41;;;;;;;5.22;3.03;;;19.30;99.90;;;;;;5084052;28;20038;-75
2022/08/08 08:14:07;;;;;;;5.25;2.90;;;19.30;99.90;;;;;;5067572;28;20027;-75
2022/08/08 08:16:37;;;;;;;4.00;2.90;;;19.40;99.90;;;;;;5065344;28;20106;-74
2022/08/08 08:19:08;;;;;;;3.95;2.70;;;19.40;99.90;;;;;;5086283;28;20031;-75
2022/08/08 08:21:38;;;;;;;10.32;2.70;;;19.50;99.80;;;;;;5081652;28;20028;-74
2022/08/08 08:24:04;;;;;;;4.00;2.35;;;19.50;99.90;;;;;;5067054;28;20028;-75
2022/08/08 08:26:30;;;;;;;4.47;2.65;;;19.50;99.90;;;;;;5069356;28;20619;-75
2022/08/08 08:28:56;;;;;;;4.85;2.30;;;19.50;99.90;;;;;;5065606;28;20032;-76
2022/08/08 08:31:22;;;;;;;4.50;2.40;;;19.50;99.80;;;;;;5069454;28;20024;-76
2022/08/08 08:33:47;;;;;;;5.35;2.65;;;19.60;99.90;;;;;;5083098;28;20036;-75
2022/08/08 08:36:14;;;;;;;6.80;2.45;;;19.60;99.70;;;;;;5064101;28;20119;-75
2022/08/08 08:38:40;;;;;;;4.85;2.13;;;19.60;99.40;;;;;;5081917;28;20440;-75
2022/08/08 08:41:07;;;;;;;4.50;1.80;;;19.60;99.00;;;;;;5065117;28;20100;-75
2022/08/08 08:43:38;;;;;;;4.50;1.90;;;19.60;99.00;;;;;;5084261;28;20383;-75
2022/08/08 08:46:07;;;;;;;3.83;1.70;;;19.70;99.20;;;;;;5064573;28;20031;-75
2022/08/08 08:48:33;;;;;;;5.80;1.80;;;19.70;98.60;;;;;;5084030;28;20369;-75
2022/08/08 08:51:01;;;;;;;5.80;1.80;;;19.70;97.50;;;;;;5051535;28;20078;-75
2022/08/08 08:53:29;;;;;;;6.97;2.78;;;19.80;97.40;;;;;;5072155;28;20044;-75
2022/08/08 08:55:56;;;;;;;3.15;2.42;;;20.00;98.50;;;;;;5076924;28;20040;-75
2022/08/08 08:58:35;;;;;;;4.85;2.20;;;20.20;99.60;;;;;;5068091;28;20060;-74
2022/08/08 09:01:02;;;;;;;4.90;2.90;;;20.30;99.20;;;;;;5065007;28;20503;-74
2022/08/08 09:03:29;;;;;;;6.63;2.38;;;20.30;99.20;;;;;;5065240;28;20090;-75
2022/08/08 09:05:56;;;;;;;4.32;2.50;;;20.50;98.70;;;;;;5065688;28;20031;-75
2022/08/08 09:08:26;;;;;;;6.05;2.70;;;20.60;98.10;;;;;;5081281;28;20082;-75
2022/08/08 09:10:52;;;;;;;3.80;1.95;;;20.70;97.70;;;;;;5084610;28;20096;-74
2022/08/08 09:13:19;;;;;;;3.95;1.55;;;20.80;96.00;;;;;;5068555;28;20028;-74
2022/08/08 09:15:45;;;;;;;5.35;2.42;;;20.90;95.30;;;;;;5083853;28;20072;-75
2022/08/08 09:18:13;;;;;;;9.27;2.28;;;21.10;97.00;;;;;;5065599;28;20048;-75
2022/08/08 09:20:39;;;;;;;4.57;2.60;;;21.30;96.90;;;;;;5065545;28;20515;-75
2022/08/08 09:23:06;;;;;;;5.45;2.10;;;21.30;98.50;;;;;;5065343;28;20107;-75
2022/08/08 09:25:35;;;;;;;5.25;2.65;;;21.40;98.30;;;;;;5065799;28;20387;-75
2022/08/08 09:28:01;;;;;;;3.47;2.40;;;21.50;98.60;;;;;;5087560;28;20036;-75
2022/08/08 09:30:32;;;;;;;5.90;2.15;;;21.40;98.70;;;;;;5084410;28;20078;-75
2022/08/08 09:32:58;;;;;;;;;;;21.40;98.90;;;;;;5085633;28;20125;-75
2022/08/08 09:35:27;;;;;;;5.10;2.15;;;21.40;99.00;;;;;;5072752;28;20364;-75
2022/08/08 09:37:55;;;;;;;3.95;1.98;;;21.40;99.50;;;;;;5081479;28;20438;-74
2022/08/08 09:40:23;;;;;;;4.70;2.20;;;21.40;99.40;;;;;;5065157;28;20028;-74
2022/08/08 09:43:05;;;;;;;4.22;2.10;;;21.30;99.50;;;;;;5065675;28;20029;-74
2022/08/08 09:45:37;;;;;;;4.50;1.88;;;21.30;99.40;;;;;;5066596;28;20395;-74
2022/08/08 09:48:05;;;;;;;4.78;1.88;;;21.40;99.60;;;;;;5083441;28;20032;-74
2022/08/08 09:50:31;;;;;;;5.22;2.15;;;21.30;99.40;;;;;;5067562;28;20021;-75
2022/08/08 09:52:57;;;;;;;6.15;1.95;;;21.30;99.30;;;;;;5083608;28;20575;-74
2022/08/08 09:55:24;;;;;;;3.72;1.80;;;21.40;99.10;;;;;;5084188;28;20028;-75
2022/08/08 09:58:05;;;;;;;5.18;1.92;;;21.50;99.00;;;;;;5086116;28;20113;-75
2022/08/08 10:00:36;;;;;;;5.97;2.08;;;21.50;99.00;;;;;;5066545;28;20024;-75
2022/08/08 10:03:03;;;;;;;5.47;1.80;;;21.50;98.70;;;;;;5068220;28;20024;-75
2022/08/08 10:05:34;;;;;;;4.65;1.90;;;21.60;99.10;;;;;;5050959;28;20032;-75
2022/08/08 10:08:01;;;;;;;4.57;2.03;;;21.60;98.90;;;;;;5064609;28;20039;-75
2022/08/08 10:10:38;;;;;;;6.43;2.42;;;21.80;98.40;;;;;;5068288;28;20028;-75
2022/08/08 10:13:20;;;;;;;6.30;2.33;;;21.70;98.50;;;;;;5082989;28;20013;-75
2022/08/08 10:15:49;;;;;;;4.38;1.95;;;21.70;98.50;;;;;;5081696;28;20505;-75
2022/08/08 10:18:32;;;;;;;5.65;2.38;;;21.60;98.60;;;;;;5064730;28;20499;-73
2022/08/08 10:21:10;;;;;;;4.22;2.30;;;21.80;99.00;;;;;;5084245;28;20338;-75
2022/08/08 10:23:47;;;;;;;9.07;2.22;;;21.90;99.00;;;;;;5090097;28;20028;-74
2022/08/08 10:26:24;;;;;;;3.80;2.30;;;21.80;99.00;;;;;;5050164;28;20059;-75
2022/08/08 10:29:11;;;;;;;3.25;1.85;;;21.80;98.50;;;;;;5055387;28;20056;-75
2022/08/08 10:34:25;;;;;;;6.00;2.17;;;22.00;98.50;;;;;;5070570;28;20024;-75
2022/08/08 10:36:52;;;;;;;6.75;2.03;;;22.00;98.50;;;;;;5082175;28;20062;-75
2022/08/08 10:39:26;;;;;;;5.65;2.20;;;22.00;98.30;;;;;;5064296;28;20031;-75
2022/08/08 10:42:01;;;;;;;7.43;4.38;;;22.10;97.60;;;;;;5086164;28;20024;-74
2022/08/08 10:44:38;;;;;;;10.60;6.38;;;22.20;97.70;;;;;;5069874;28;20027;-74
2022/08/08 10:47:18;;;;;;;5.82;2.92;;;22.30;97.40;;;;;;5083974;28;20058;-74
2022/08/08 10:49:52;;;;;;;5.97;2.65;;;22.50;97.50;;;;;;5049148;28;20044;-75
2022/08/08 10:52:28;;;;;;;3.55;2.30;;;22.60;96.90;;;;;;5047871;28;20016;-75
2022/08/08 10:55:18;;;;;;;4.13;2.10;;;22.60;96.90;;;;;;5069509;28;20032;-75
2022/08/08 10:57:49;;;;;;;10.00;2.57;;;22.60;96.40;;;;;;5085739;28;20040;-75
2022/08/08 11:00:21;;;;;;;4.50;1.95;;;22.70;96.30;;;;;;5083213;28;20301;-74
2022/08/08 11:02:48;;;;;;;5.03;2.17;;;22.80;95.40;;;;;;5070343;28;20024;-75
2022/08/08 11:05:15;;;;;;;4.30;1.63;;;23.00;95.30;;;;;;5084911;28;20028;-76
2022/08/08 11:07:56;;;;;;;6.18;1.70;;;23.20;94.80;;;;;;5071003;28;20126;-75
2022/08/08 11:10:24;;;;;;;4.15;1.75;;;23.40;94.80;;;;;;5070266;28;20020;-75
2022/08/08 11:13:01;;;;;;;4.57;1.70;;;23.50;94.20;;;;;;5075570;28;20024;-75
2022/08/08 11:15:29;;;;;;;4.65;1.90;;;23.40;94.00;;;;;;5067643;28;20028;-74
2022/08/08 11:17:55;;;;;;;4.78;1.90;;;23.60;93.80;;;;;;5091684;28;20035;-75
2022/08/08 11:20:28;;;;;;;4.60;1.80;;;23.60;93.50;;;;;;5071712;28;20029;-75
2022/08/08 11:22:59;;;;;;;3.85;1.67;;;23.60;92.90;;;;;;5089452;28;20055;-75
2022/08/08 11:25:27;;;;;;;5.20;1.90;;;23.60;92.40;;;;;;5087059;28;20024;-75
2022/08/08 11:27:54;;;;;;;4.72;1.80;;;23.60;92.50;;;;;;5071026;28;20054;-75
2022/08/08 11:30:23;;;;;;;5.53;1.98;;;23.60;92.70;;;;;;5088003;28;20070;-75
2022/08/08 11:32:53;;;;;;;7.13;3.38;;;23.60;93.20;;;;;;5048745;28;20093;-74
2022/08/08 11:35:20;;;;;;;26.37;10.00;;;23.80;92.90;;;;;;5060855;28;20082;-74
2022/08/08 11:37:46;;;;;;;12.40;4.85;;;23.80;92.80;;;;;;5052556;28;20020;-76
2022/08/08 11:40:13;;;;;;;31.15;14.50;;;23.70;93.00;;;;;;5087415;28;20057;-76
2022/08/08 11:42:44;;;;;;;34.58;17.17;;;23.80;92.50;;;;;;5070276;28;20055;-75
2022/08/08 11:45:11;;;;;;;15.85;7.75;;;23.90;92.20;;;;;;5089257;28;20028;-76
2022/08/08 11:47:38;;;;;;;13.77;6.97;;;23.80;92.50;;;;;;5086286;28;20407;-75
2022/08/08 11:50:08;;;;;;;9.30;3.65;;;23.70;92.20;;;;;;5065351;28;20052;-75
2022/08/08 11:52:35;;;;;;;7.63;2.22;;;23.60;92.00;;;;;;5070349;28;20029;-75
2022/08/08 11:55:01;;;;;;;3.95;2.40;;;23.60;91.50;;;;;;5066779;28;20621;-75
2022/08/08 11:57:28;;;;;;;6.50;1.92;;;23.60;91.70;;;;;;5070679;28;20375;-74
2022/08/08 12:00:00;;;;;;;3.42;1.70;;;23.60;91.30;;;;;;5075599;28;20075;-75
2022/08/08 12:02:28;;;;;;;2.88;1.60;;;23.50;90.90;;;;;;5073739;28;20024;-74
2022/08/08 12:05:32;;;;;;;4.93;1.67;;;23.50;90.80;;;;;;5086032;28;20017;-75
2022/08/08 12:07:58;;;;;;;214.18;172.50;;;23.40;90.90;;;;;;5076425;28;20040;-76
2022/08/08 12:10:26;;;;;;;278.35;211.45;;;23.50;91.20;;;;;;5067976;28;20016;-75
2022/08/08 12:13:03;;;;;;;249.07;169.35;;;23.70;90.60;;;;;;5074093;28;20028;-75
2022/08/08 12:15:36;;;;;;;61.15;45.30;;;24.10;90.30;;;;;;5072372;28;20078;-74
2022/08/08 12:18:23;;;;;;;6.78;3.58;;;24.30;89.30;;;;;;5094807;28;20044;-75
2022/08/08 12:20:50;;;;;;;2.47;1.38;;;24.90;87.90;;;;;;5075909;28;20568;-75
2022/08/08 12:23:34;;;;;;;3.95;1.45;;;25.00;86.30;;;;;;5066720;28;20104;-75
2022/08/08 12:26:10;;;;;;;5.15;1.60;;;24.90;87.20;;;;;;5048111;28;20444;-75
2022/08/08 12:28:36;;;;;;;3.47;1.40;;;25.00;86.00;;;;;;5088926;28;20024;-75
2022/08/08 12:31:06;;;;;;;4.88;1.60;;;25.70;84.40;;;;;;5076509;28;20394;-75
2022/08/08 12:33:32;;;;;;;4.75;1.40;;;26.20;82.90;;;;;;5086862;28;20082;-75
2022/08/08 12:36:09;;;;;;;3.22;1.50;;;26.70;79.30;;;;;;5069009;28;20471;-75
2022/08/08 12:38:50;;;;;;;3.13;1.48;;;27.10;76.90;;;;;;5069097;28;20029;-75
2022/08/08 12:41:21;;;;;;;3.85;1.30;;;27.00;73.80;;;;;;5087597;28;20025;-75
2022/08/08 12:43:48;;;;;;;4.78;1.60;;;27.70;71.70;;;;;;5088107;28;20040;-75
2022/08/08 12:46:21;;;;;;;2.38;1.20;;;28.40;70.50;;;;;;5087355;28;20506;-76
2022/08/08 12:48:55;;;;;;;3.03;1.38;;;29.00;66.20;;;;;;5066814;28;20506;-75
2022/08/08 12:51:21;;;;;;;2.25;1.20;;;28.60;64.70;;;;;;5068689;28;20119;-75
2022/08/08 12:53:58;;;;;;;2.08;1.10;;;27.90;66.30;;;;;;5084960;28;20060;-75
2022/08/08 12:56:35;;;;;;;2.53;1.30;;;27.10;68.70;;;;;;5068734;28;20032;-75
2022/08/08 12:59:12;;;;;;;3.25;1.17;;;26.30;70.90;;;;;;5056345;28;20077;-75
2022/08/08 13:01:37;;;;;;;3.40;1.45;;;25.70;70.60;;;;;;5087157;28;20151;-75
2022/08/08 13:04:18;;;;;;;3.67;1.10;;;25.10;71.70;;;;;;5067955;28;20055;-75
2022/08/08 13:07:05;;;;;;;3.58;1.45;;;25.10;73.30;;;;;;5067091;28;20058;-76
2022/08/08 13:09:44;;;;;;;7.38;1.50;;;25.10;75.00;;;;;;5083873;28;20047;-75
2022/08/08 13:12:27;;;;;;;2.60;1.33;;;24.80;75.00;;;;;;5066139;28;20024;-75
2022/08/08 13:14:56;;;;;;;2.13;1.20;;;24.80;73.50;;;;;;5084546;28;20023;-75
2022/08/08 13:17:25;;;;;;;1.90;0.90;;;25.10;72.70;;;;;;5051738;28;20040;-75
2022/08/08 13:19:53;;;;;;;2.35;1.30;;;25.70;71.80;;;;;;5053279;28;20024;-74
2022/08/08 13:22:20;;;;;;;2.80;1.05;;;26.50;69.90;;;;;;5084528;28;20399;-74
2022/08/08 13:24:46;;;;;;;6.32;1.20;;;26.40;66.90;;;;;;5085639;28;20016;-75